Time;durP1;ratioP1;P1;durP2;ratioP2;P2;SDS_P1;SDS_P2;PMS_P1;PMS_P2;Temp;Humidity;BMP_temperature;BMP_pressure;BME280_temperature;BME280_humidity;BME280_pressure;Samples;Min_cycle;Max_cycle;Signal;HPM_P1;HPM_P2
2023/09/17 00:02:14;;;;;;;22.00;13.40;;;;;;;;;;5031104;28;20025;-69
2023/09/17 00:04:39;;;;;;;28.23;15.77;;;;;;;;;;5026536;28;20032;-69
2023/09/17 00:07:05;;;;;;;25.38;15.52;;;;;;;;;;5012094;28;20164;-69
2023/09/17 00:09:30;;;;;;;31.23;16.58;;;;;;;;;;5012410;28;20104;-69
2023/09/17 00:11:55;;;;;;;23.05;14.43;;;;;;;;;;5012762;28;20399;-69
2023/09/17 00:14:21;;;;;;;23.83;13.88;;;;;;;;;;5012266;28;20115;-69
2023/09/17 00:16:46;;;;;;;21.80;13.48;;;;;;;;;;5020408;28;20503;-69
2023/09/17 00:19:11;;;;;;;21.10;12.93;;;;;;;;;;5011107;28;20083;-69
2023/09/17 00:21:37;;;;;;;35.17;20.55;;;;;;;;;;5024839;28;20028;-69
2023/09/17 00:24:02;;;;;;;39.13;22.27;;;;;;;;;;5030990;28;20034;-69
2023/09/17 00:26:27;;;;;;;35.08;20.08;;;;;;;;;;5031531;28;20017;-69
2023/09/17 00:28:53;;;;;;;42.60;23.08;;;;;;;;;;5035255;28;20440;-69
2023/09/17 00:31:18;;;;;;;37.95;22.65;;;;;;;;;;5035510;28;20022;-69
2023/09/17 00:33:43;;;;;;;31.17;17.92;;;;;;;;;;5035077;28;20021;-69
2023/09/17 00:36:09;;;;;;;42.30;22.83;;;;;;;;;;5024584;28;20503;-69
2023/09/17 00:38:34;;;;;;;36.05;21.65;;;;;;;;;;5021428;28;20076;-67
2023/09/17 00:41:00;;;;;;;32.97;18.42;;;;;;;;;;5015686;28;20021;-66
2023/09/17 00:43:25;;;;;;;29.55;17.23;;;;;;;;;;5026011;28;20104;-67
2023/09/17 00:45:51;;;;;;;30.42;18.08;;;;;;;;;;5035629;28;20025;-67
2023/09/17 00:48:16;;;;;;;29.08;16.73;;;;;;;;;;5034463;28;20203;-67
2023/09/17 00:50:42;;;;;;;31.27;17.80;;;;;;;;;;5033474;28;20116;-67
2023/09/17 00:53:10;;;;;;;22.13;14.02;;;;;;;;;;5024088;28;20025;-66
2023/09/17 00:55:36;;;;;;;22.40;13.55;;;;;;;;;;4998359;28;20084;-67
2023/09/17 00:58:02;;;;;;;24.88;13.93;;;;;;;;;;5020508;28;20476;-67
2023/09/17 01:00:28;;;;;;;23.27;14.15;;;;;;;;;;5016231;28;20041;-67
2023/09/17 01:02:54;;;;;;;20.92;12.75;;;;;;;;;;5034956;28;20084;-67
2023/09/17 01:05:20;;;;;;;24.05;13.73;;;;;;;;;;5035010;28;20029;-67
2023/09/17 01:07:46;;;;;;;30.85;17.27;;;;;;;;;;5035197;28;20029;-67
2023/09/17 01:10:11;;;;;;;26.30;15.07;;;;;;;;;;5033509;28;20025;-67
2023/09/17 01:12:38;;;;;;;29.60;17.50;;;;;;;;;;5034658;28;20032;-67
2023/09/17 01:15:06;;;;;;;28.50;18.63;;;;;;;;;;5034165;28;20163;-67
2023/09/17 01:17:31;;;;;;;28.67;15.13;;;;;;;;;;5033964;28;20484;-66
2023/09/17 01:19:57;;;;;;;24.17;15.05;;;;;;;;;;5033484;28;20115;-67
2023/09/17 01:22:38;;;;;;;24.58;14.48;;;;;;;;;;5034222;28;20168;-67
2023/09/17 01:25:15;;;;;;;23.17;13.75;;;;;;;;;;5034057;28;20029;-67
2023/09/17 01:27:44;;;;;;;27.55;15.25;;;;;;;;;;5033617;28;20030;-67
2023/09/17 01:30:15;;;;;;;34.00;17.77;;;;;;;;;;5035270;28;20514;-67
2023/09/17 01:32:44;;;;;;;40.05;20.20;;;;;;;;;;5035262;28;20030;-67
2023/09/17 01:35:15;;;;;;;25.92;15.07;;;;;;;;;;5034342;28;20030;-67
2023/09/17 01:37:47;;;;;;;30.92;17.13;;;;;;;;;;5033956;28;20020;-67
2023/09/17 01:40:12;;;;;;;26.20;16.02;;;;;;;;;;5032947;28;20018;-67
2023/09/17 01:42:44;;;;;;;29.35;15.80;;;;;;;;;;5035081;28;20430;-67
2023/09/17 01:45:14;;;;;;;30.17;17.75;;;;;;;;;;5033751;28;20102;-67
2023/09/17 01:47:42;;;;;;;27.73;16.10;;;;;;;;;;5033085;28;20171;-67
2023/09/17 01:50:08;;;;;;;31.20;16.70;;;;;;;;;;5035310;28;20360;-67
2023/09/17 01:52:34;;;;;;;29.45;16.35;;;;;;;;;;5033364;28;20029;-66
2023/09/17 01:55:02;;;;;;;23.35;15.68;;;;;;;;;;5033675;28;20029;-66
2023/09/17 01:57:28;;;;;;;21.35;13.23;;;;;;;;;;5033181;28;20044;-66
2023/09/17 01:59:53;;;;;;;30.73;20.40;;;;;;;;;;5033910;28;20037;-67
2023/09/17 02:02:19;;;;;;;24.48;14.35;;;;;;;;;;5034384;28;20390;-66
2023/09/17 02:04:45;;;;;;;32.15;16.95;;;;;;;;;;5034621;28;20030;-66
2023/09/17 02:07:11;;;;;;;31.13;16.85;;;;;;;;;;5034409;28;20475;-66
2023/09/17 02:09:37;;;;;;;34.97;19.17;;;;;;;;;;5032992;28;20032;-67
2023/09/17 02:12:02;;;;;;;52.30;25.38;;;;;;;;;;5034298;28;20022;-67
2023/09/17 02:14:27;;;;;;;49.75;22.63;;;;;;;;;;5034480;28;20537;-67
2023/09/17 02:16:54;;;;;;;44.25;22.25;;;;;;;;;;5034066;28;20088;-67
2023/09/17 02:19:19;;;;;;;44.92;22.50;;;;;;;;;;5034546;28;20390;-66
2023/09/17 02:21:45;;;;;;;37.67;20.45;;;;;;;;;;5034154;28;20018;-66
2023/09/17 02:24:10;;;;;;;30.35;17.88;;;;;;;;;;5033486;28;20025;-66
2023/09/17 02:26:35;;;;;;;25.80;14.45;;;;;;;;;;5032931;28;20033;-66
2023/09/17 02:29:01;;;;;;;26.08;14.63;;;;;;;;;;5016034;28;20598;-66
2023/09/17 02:31:27;;;;;;;38.63;21.75;;;;;;;;;;5033856;28;20045;-67
2023/09/17 02:33:52;;;;;;;35.05;19.00;;;;;;;;;;5033291;28;20025;-66
2023/09/17 02:36:18;;;;;;;38.42;22.00;;;;;;;;;;5033662;28;20021;-66
2023/09/17 02:38:43;;;;;;;31.30;18.17;;;;;;;;;;5032462;28;20026;-66
2023/09/17 02:41:08;;;;;;;37.45;21.48;;;;;;;;;;5034188;28;20030;-66
2023/09/17 02:43:36;;;;;;;50.15;20.83;;;;;;;;;;5022548;28;20033;-67
2023/09/17 02:46:03;;;;;;;30.40;20.27;;;;;;;;;;5013918;28;20088;-67
2023/09/17 02:48:29;;;;;;;31.73;18.90;;;;;;;;;;5011806;28;20025;-67
2023/09/17 02:50:54;;;;;;;32.13;19.42;;;;;;;;;;5013275;28;20080;-67
2023/09/17 02:53:19;;;;;;;29.73;17.00;;;;;;;;;;5013729;28;20052;-67
2023/09/17 02:55:45;;;;;;;26.50;16.83;;;;;;;;;;5014270;28;20026;-67
2023/09/17 02:58:10;;;;;;;40.58;21.40;;;;;;;;;;5020962;28;20074;-67
2023/09/17 03:00:35;;;;;;;29.65;18.33;;;;;;;;;;5032072;28;20032;-67
2023/09/17 03:03:01;;;;;;;25.88;16.63;;;;;;;;;;5032771;28;20025;-67
2023/09/17 03:05:26;;;;;;;30.40;19.30;;;;;;;;;;5027384;28;20033;-67
2023/09/17 03:07:53;;;;;;;25.33;16.20;;;;;;;;;;5013258;28;20037;-66
2023/09/17 03:10:20;;;;;;;29.17;19.67;;;;;;;;;;5012989;28;20049;-67
2023/09/17 03:12:48;;;;;;;27.00;17.77;;;;;;;;;;5030600;28;20032;-67
2023/09/17 03:15:13;;;;;;;35.17;22.08;;;;;;;;;;5030840;28;20036;-67
2023/09/17 03:17:42;;;;;;;28.88;18.02;;;;;;;;;;5026420;28;20029;-67
2023/09/17 03:20:17;;;;;;;22.52;15.38;;;;;;;;;;5033015;28;20040;-67
2023/09/17 03:22:43;;;;;;;20.95;13.48;;;;;;;;;;5015819;28;20104;-67
2023/09/17 03:25:08;;;;;;;23.35;14.50;;;;;;;;;;5012900;28;20030;-67
2023/09/17 03:27:34;;;;;;;22.55;14.27;;;;;;;;;;5015140;28;20030;-67
2023/09/17 03:30:00;;;;;;;45.90;20.58;;;;;;;;;;5020035;28;20418;-67
2023/09/17 03:32:25;;;;;;;26.30;18.45;;;;;;;;;;5021818;28;20029;-67
2023/09/17 03:34:50;;;;;;;30.10;20.70;;;;;;;;;;5031537;28;20035;-67
2023/09/17 03:37:15;;;;;;;29.33;17.73;;;;;;;;;;5032348;28;20044;-67
2023/09/17 03:39:43;;;;;;;21.80;14.73;;;;;;;;;;5032765;28;20113;-67
2023/09/17 03:42:08;;;;;;;32.95;21.35;;;;;;;;;;5031365;28;20045;-67
2023/09/17 03:44:33;;;;;;;31.83;19.33;;;;;;;;;;5027698;28;20084;-67
2023/09/17 03:46:59;;;;;;;34.78;21.58;;;;;;;;;;5032515;28;20029;-66
2023/09/17 03:49:26;;;;;;;32.30;17.27;;;;;;;;;;5032155;28;20101;-67
2023/09/17 03:51:51;;;;;;;29.02;18.85;;;;;;;;;;5032759;28;20104;-67
2023/09/17 03:54:17;;;;;;;33.10;20.52;;;;;;;;;;5030444;28;20105;-67
2023/09/17 03:56:43;;;;;;;28.45;19.63;;;;;;;;;;5026801;28;20029;-67
2023/09/17 03:59:09;;;;;;;63.28;22.50;;;;;;;;;;5007805;28;20021;-67
2023/09/17 04:01:34;;;;;;;47.00;23.20;;;;;;;;;;5012635;28;20410;-67
2023/09/17 04:03:59;;;;;;;43.10;22.75;;;;;;;;;;5016678;28;20021;-67
2023/09/17 04:06:28;;;;;;;30.83;20.08;;;;;;;;;;5013812;28;20069;-67
2023/09/17 04:08:53;;;;;;;45.97;20.73;;;;;;;;;;5015771;28;20030;-67
2023/09/17 04:11:19;;;;;;;26.80;16.13;;;;;;;;;;5025017;28;20048;-67
2023/09/17 04:13:44;;;;;;;36.17;22.80;;;;;;;;;;5027152;28;20094;-67
2023/09/17 04:16:10;;;;;;;33.95;21.10;;;;;;;;;;5035906;28;20030;-67
2023/09/17 04:18:39;;;;;;;95.13;27.10;;;;;;;;;;5023022;28;20036;-67
2023/09/17 04:21:04;;;;;;;48.05;22.80;;;;;;;;;;5018785;28;20054;-69
2023/09/17 04:23:29;;;;;;;40.60;23.75;;;;;;;;;;5015940;28;20057;-69
2023/09/17 04:25:54;;;;;;;59.78;23.08;;;;;;;;;;5026369;28;20430;-69
2023/09/17 04:28:20;;;;;;;30.45;18.23;;;;;;;;;;5035708;28;20549;-69
2023/09/17 04:30:45;;;;;;;23.17;15.50;;;;;;;;;;5034485;28;20044;-70
2023/09/17 04:33:10;;;;;;;19.73;13.65;;;;;;;;;;5035988;28;20071;-69
2023/09/17 04:35:36;;;;;;;23.38;15.63;;;;;;;;;;5035414;28;20035;-70
2023/09/17 04:38:01;;;;;;;35.28;19.63;;;;;;;;;;5035423;28;20021;-70
2023/09/17 04:40:28;;;;;;;35.20;19.98;;;;;;;;;;5034426;28;20391;-69
2023/09/17 04:42:53;;;;;;;25.02;16.33;;;;;;;;;;5031735;28;20097;-70
2023/09/17 04:45:32;;;;;;;28.15;18.33;;;;;;;;;;5018183;28;20022;-69
2023/09/17 04:47:57;;;;;;;25.98;17.30;;;;;;;;;;5015486;28;20029;-69
2023/09/17 04:50:22;;;;;;;30.92;19.85;;;;;;;;;;5018603;28;20041;-70
2023/09/17 04:52:48;;;;;;;31.88;18.45;;;;;;;;;;5015341;28;20562;-70
2023/09/17 04:55:13;;;;;;;30.05;19.13;;;;;;;;;;5019690;28;20024;-70
2023/09/17 04:57:38;;;;;;;21.05;13.90;;;;;;;;;;5035132;28;20357;-69
2023/09/17 05:00:11;;;;;;;24.60;16.73;;;;;;;;;;5035038;28;20025;-69
2023/09/17 05:02:39;;;;;;;32.63;19.77;;;;;;;;;;5027946;28;20026;-70
2023/09/17 05:05:07;;;;;;;30.30;20.23;;;;;;;;;;5015083;28;20026;-69
2023/09/17 05:07:32;;;;;;;31.05;19.95;;;;;;;;;;5022766;28;20332;-70
2023/09/17 05:09:57;;;;;;;22.60;15.82;;;;;;;;;;5015999;28;20041;-70
2023/09/17 05:12:23;;;;;;;26.40;17.52;;;;;;;;;;5014293;28;20033;-70
2023/09/17 05:14:48;;;;;;;20.27;14.32;;;;;;;;;;5022179;28;20026;-70
2023/09/17 05:17:13;;;;;;;24.35;16.02;;;;;;;;;;5014724;28;20400;-70
2023/09/17 05:19:39;;;;;;;28.63;18.73;;;;;;;;;;5020153;28;20566;-69
2023/09/17 05:22:04;;;;;;;28.52;17.13;;;;;;;;;;5014355;28;20029;-70
2023/09/17 05:24:29;;;;;;;26.20;17.17;;;;;;;;;;5013300;28;20018;-70
2023/09/17 05:26:56;;;;;;;32.15;19.23;;;;;;;;;;5033518;28;20025;-70
2023/09/17 05:29:21;;;;;;;26.83;17.70;;;;;;;;;;5026249;28;20060;-70
2023/09/17 05:31:49;;;;;;;23.70;16.02;;;;;;;;;;5014693;28;20109;-70
2023/09/17 05:34:15;;;;;;;24.25;16.90;;;;;;;;;;5018723;28;20096;-70
2023/09/17 05:36:40;;;;;;;40.25;20.92;;;;;;;;;;5017034;28;20028;-70
2023/09/17 05:39:06;;;;;;;27.08;16.33;;;;;;;;;;5014237;28;20080;-70
2023/09/17 05:41:31;;;;;;;32.95;19.33;;;;;;;;;;5030309;28;20045;-70
2023/09/17 05:43:56;;;;;;;35.13;20.73;;;;;;;;;;5027151;28;20144;-70
2023/09/17 05:46:22;;;;;;;37.05;21.08;;;;;;;;;;5014362;28;20053;-69
2023/09/17 05:48:48;;;;;;;31.77;20.48;;;;;;;;;;5021012;28;20060;-70
2023/09/17 05:51:13;;;;;;;27.90;17.55;;;;;;;;;;5014632;28;20069;-69
2023/09/17 05:53:39;;;;;;;37.22;20.58;;;;;;;;;;5014613;28;20065;-70
2023/09/17 05:56:04;;;;;;;33.05;21.23;;;;;;;;;;5015774;28;20033;-70
2023/09/17 05:58:30;;;;;;;31.75;20.65;;;;;;;;;;5015306;28;20022;-70
2023/09/17 06:00:55;;;;;;;41.60;21.48;;;;;;;;;;5029383;28;20041;-69
2023/09/17 06:03:21;;;;;;;33.20;20.02;;;;;;;;;;5013951;28;20030;-69
2023/09/17 06:05:46;;;;;;;25.48;17.42;;;;;;;;;;5012688;28;20022;-69
2023/09/17 06:08:11;;;;;;;32.25;18.73;;;;;;;;;;5026647;28;20483;-70
2023/09/17 06:10:37;;;;;;;23.27;14.48;;;;;;;;;;5033528;28;20032;-70
2023/09/17 06:13:02;;;;;;;23.80;15.32;;;;;;;;;;5027364;28;20030;-70
2023/09/17 06:15:27;;;;;;;26.13;16.17;;;;;;;;;;5014431;28;20034;-70
2023/09/17 06:17:53;;;;;;;21.33;14.38;;;;;;;;;;5033016;28;20104;-70
2023/09/17 06:20:18;;;;;;;30.63;18.35;;;;;;;;;;5033305;28;20021;-70
2023/09/17 06:22:45;;;;;;;33.30;18.58;;;;;;;;;;5031679;28;20484;-70
2023/09/17 06:25:11;;;;;;;30.13;17.80;;;;;;;;;;5015235;28;20035;-70
2023/09/17 06:27:36;;;;;;;20.95;14.50;;;;;;;;;;5018695;28;20045;-70
2023/09/17 06:30:02;;;;;;;30.65;18.58;;;;;;;;;;5016793;28;20026;-70
2023/09/17 06:32:28;;;;;;;34.15;20.38;;;;;;;;;;5013234;28;20025;-70
2023/09/17 06:34:53;;;;;;;24.98;15.88;;;;;;;;;;5018193;28;20113;-70
2023/09/17 06:37:18;;;;;;;33.53;19.40;;;;;;;;;;5013162;28;20503;-70
2023/09/17 06:39:43;;;;;;;25.10;14.70;;;;;;;;;;5019434;28;20021;-70
2023/09/17 06:42:10;;;;;;;20.17;13.93;;;;;;;;;;5013517;28;20045;-70
2023/09/17 06:44:35;;;;;;;27.75;16.10;;;;;;;;;;5011881;28;20025;-70
2023/09/17 06:47:00;;;;;;;22.20;14.30;;;;;;;;;;5028109;28;20080;-70
2023/09/17 06:49:26;;;;;;;24.05;14.73;;;;;;;;;;5027236;28;20025;-70
2023/09/17 06:51:53;;;;;;;24.17;15.45;;;;;;;;;;5031718;28;20025;-70
2023/09/17 06:54:20;;;;;;;30.48;17.80;;;;;;;;;;5032251;28;20116;-69
2023/09/17 06:56:45;;;;;;;28.17;17.88;;;;;;;;;;5031716;28;20028;-70
2023/09/17 06:59:11;;;;;;;26.00;15.25;;;;;;;;;;5020340;28;20017;-70
2023/09/17 07:01:39;;;;;;;29.95;18.27;;;;;;;;;;5032684;28;20124;-70
2023/09/17 07:04:04;;;;;;;25.33;15.90;;;;;;;;;;5023301;28;20040;-70
2023/09/17 07:06:30;;;;;;;18.48;12.60;;;;;;;;;;5032184;28;20025;-70
2023/09/17 07:08:57;;;;;;;18.27;13.25;;;;;;;;;;5030696;28;20025;-71
2023/09/17 07:11:22;;;;;;;22.83;14.18;;;;;;;;;;5029792;28;20479;-70
2023/09/17 07:13:48;;;;;;;25.30;15.40;;;;;;;;;;5032538;28;20083;-70
2023/09/17 07:16:15;;;;;;;27.00;15.88;;;;;;;;;;5023351;28;20368;-71
2023/09/17 07:18:41;;;;;;;35.78;19.02;;;;;;;;;;5011403;28;20049;-70
2023/09/17 07:21:06;;;;;;;27.02;16.70;;;;;;;;;;5017601;28;20022;-70
2023/09/17 07:23:32;;;;;;;26.98;15.63;;;;;;;;;;5032829;28;20104;-71
2023/09/17 07:25:57;;;;;;;31.33;17.85;;;;;;;;;;5030740;28;20514;-70
2023/09/17 07:28:23;;;;;;;27.40;16.50;;;;;;;;;;5032175;28;20033;-70
2023/09/17 07:30:55;;;;;;;28.70;17.73;;;;;;;;;;5031082;28;20087;-70
2023/09/17 07:33:20;;;;;;;19.70;13.65;;;;;;;;;;5030801;28;20033;-70
2023/09/17 07:35:46;;;;;;;25.13;14.43;;;;;;;;;;5030655;28;20072;-70
2023/09/17 07:38:11;;;;;;;31.23;16.15;;;;;;;;;;5034379;28;20475;-71
2023/09/17 07:40:36;;;;;;;18.35;12.82;;;;;;;;;;5035245;28;20087;-71
2023/09/17 07:43:04;;;;;;;21.05;13.55;;;;;;;;;;5036372;28;20386;-71
2023/09/17 07:45:29;;;;;;;18.75;13.15;;;;;;;;;;5034902;28;20442;-71
2023/09/17 07:47:55;;;;;;;22.17;14.70;;;;;;;;;;5034370;28;20030;-70
2023/09/17 07:50:21;;;;;;;20.55;12.57;;;;;;;;;;5026833;28;20029;-70
2023/09/17 07:52:46;;;;;;;33.00;15.50;;;;;;;;;;5025222;28;20072;-70
2023/09/17 07:55:11;;;;;;;18.27;12.27;;;;;;;;;;5029347;28;20033;-71
2023/09/17 07:57:37;;;;;;;19.80;12.75;;;;;;;;;;5031661;28;20021;-70
2023/09/17 08:00:04;;;;;;;19.95;13.90;;;;;;;;;;5035526;28;20021;-70
2023/09/17 08:02:29;;;;;;;18.65;12.27;;;;;;;;;;5034797;28;20021;-70
2023/09/17 08:04:54;;;;;;;25.17;14.02;;;;;;;;;;5035936;28;20044;-70
2023/09/17 08:07:20;;;;;;;21.88;14.20;;;;;;;;;;5018260;28;20071;-70
2023/09/17 08:09:45;;;;;;;19.90;13.10;;;;;;;;;;5035950;28;20021;-70
2023/09/17 08:12:10;;;;;;;22.90;13.43;;;;;;;;;;5036109;28;20017;-70
2023/09/17 08:14:36;;;;;;;25.00;14.88;;;;;;;;;;5035327;28;20483;-70
2023/09/17 08:17:02;;;;;;;22.70;13.88;;;;;;;;;;5035808;28;20041;-70
2023/09/17 08:19:29;;;;;;;22.52;13.13;;;;;;;;;;5034553;28;20025;-70
2023/09/17 08:21:54;;;;;;;24.27;14.13;;;;;;;;;;5035528;28;20502;-70
2023/09/17 08:24:20;;;;;;;22.63;13.63;;;;;;;;;;5027409;28;20395;-70
2023/09/17 08:26:49;;;;;;;20.05;13.45;;;;;;;;;;5034793;28;20484;-70
2023/09/17 08:29:14;;;;;;;32.22;19.55;;;;;;;;;;5031618;28;20500;-68
2023/09/17 08:31:39;;;;;;;23.55;15.23;;;;;;;;;;5029972;28;20028;-68
2023/09/17 08:34:04;;;;;;;26.15;18.02;;;;;;;;;;5035340;28;20025;-67
2023/09/17 08:36:31;;;;;;;21.90;14.73;;;;;;;;;;5031735;28;20495;-67
2023/09/17 08:38:56;;;;;;;25.30;14.80;;;;;;;;;;5034653;28;20033;-67
2023/09/17 08:41:24;;;;;;;26.42;14.93;;;;;;;;;;5033909;28;20025;-68
2023/09/17 08:43:53;;;;;;;28.42;17.90;;;;;;;;;;5034251;28;20029;-68
2023/09/17 08:46:19;;;;;;;22.38;14.73;;;;;;;;;;5033885;28;20022;-68
2023/09/17 08:48:45;;;;;;;23.10;14.18;;;;;;;;;;5030534;28;20112;-68
2023/09/17 08:51:13;;;;;;;22.70;14.98;;;;;;;;;;5015259;28;20108;-68
2023/09/17 08:53:58;;;;;;;28.90;17.60;;;;;;;;;;5014436;28;20046;-68
2023/09/17 08:56:24;;;;;;;20.02;11.98;;;;;;;;;;5023817;28;20040;-68
2023/09/17 08:58:52;;;;;;;20.67;13.70;;;;;;;;;;5028861;28;20068;-68
2023/09/17 09:01:17;;;;;;;24.98;15.27;;;;;;;;;;5033726;28;20029;-67
2023/09/17 09:03:44;;;;;;;24.33;16.20;;;;;;;;;;5029084;28;20026;-67
2023/09/17 09:06:10;;;;;;;24.13;15.55;;;;;;;;;;5013386;28;20088;-67
2023/09/17 09:08:35;;;;;;;23.08;15.18;;;;;;;;;;5013610;28;20512;-67
2023/09/17 09:11:01;;;;;;;20.65;13.75;;;;;;;;;;5026291;28;20047;-67
2023/09/17 09:13:27;;;;;;;26.52;15.63;;;;;;;;;;5033517;28;20074;-67
2023/09/17 09:15:53;;;;;;;21.50;13.70;;;;;;;;;;5033327;28;20029;-67
2023/09/17 09:18:18;;;;;;;21.92;14.95;;;;;;;;;;5033224;28;20041;-67
2023/09/17 09:20:44;;;;;;;20.15;13.43;;;;;;;;;;5033733;28;20029;-67
2023/09/17 09:23:09;;;;;;;20.90;14.43;;;;;;;;;;5033367;28;20040;-67
2023/09/17 09:25:34;;;;;;;19.23;13.85;;;;;;;;;;5034369;28;20022;-67
2023/09/17 09:28:03;;;;;;;17.75;12.05;;;;;;;;;;5031968;28;20101;-67
2023/09/17 09:30:28;;;;;;;22.30;15.63;;;;;;;;;;5015009;28;20088;-67
2023/09/17 09:32:54;;;;;;;20.65;13.52;;;;;;;;;;5016427;28;20025;-66
2023/09/17 09:35:21;;;;;;;17.70;10.77;;;;;;;;;;5019302;28;20476;-67
2023/09/17 09:37:46;;;;;;;16.95;11.63;;;;;;;;;;5014207;28;20498;-67
2023/09/17 09:40:13;;;;;;;17.35;11.18;;;;;;;;;;5020003;28;20026;-67
2023/09/17 09:42:39;;;;;;;14.98;10.85;;;;;;;;;;5013027;28;20472;-67
2023/09/17 09:45:04;;;;;;;14.38;9.45;;;;;;;;;;5017581;28;20083;-67
2023/09/17 09:47:30;;;;;;;15.35;10.15;;;;;;;;;;5033561;28;20022;-67
2023/09/17 09:49:56;;;;;;;14.10;10.07;;;;;;;;;;5032944;28;20037;-67
2023/09/17 09:52:22;;;;;;;15.20;10.65;;;;;;;;;;5016375;28;20026;-67
2023/09/17 09:54:48;;;;;;;14.82;10.52;;;;;;;;;;5034128;28;20121;-67
2023/09/17 09:57:15;;;;;;;15.27;9.73;;;;;;;;;;5033327;28;20129;-67
2023/09/17 09:59:45;;;;;;;14.35;10.10;;;;;;;;;;5033455;28;20025;-67
2023/09/17 10:02:13;;;;;;;14.52;9.52;;;;;;;;;;5032509;28;20059;-67
2023/09/17 10:04:38;;;;;;;17.15;12.20;;;;;;;;;;5032481;28;20060;-66
2023/09/17 10:07:04;;;;;;;16.52;9.93;;;;;;;;;;5033559;28;20025;-68
2023/09/17 10:09:30;;;;;;;14.57;9.20;;;;;;;;;;5032300;28;20100;-69
2023/09/17 10:11:55;;;;;;;13.85;9.27;;;;;;;;;;5033681;28;20475;-69
2023/09/17 10:14:21;;;;;;;15.80;11.07;;;;;;;;;;5033310;28;20241;-69
2023/09/17 10:16:48;;;;;;;17.45;8.13;;;;;;;;;;5033100;28;20056;-69
2023/09/17 10:19:18;;;;;;;14.15;9.80;;;;;;;;;;5033576;28;20076;-69
2023/09/17 10:21:44;;;;;;;13.70;9.63;;;;;;;;;;5033481;28;20048;-69
2023/09/17 10:24:11;;;;;;;13.40;8.25;;;;;;;;;;5033767;28;20475;-69
2023/09/17 10:26:41;;;;;;;16.48;10.18;;;;;;;;;;5025546;28;20061;-69
2023/09/17 10:29:11;;;;;;;12.25;8.60;;;;;;;;;;5031616;28;20030;-69
2023/09/17 10:31:37;;;;;;;11.18;7.30;;;;;;;;;;5032614;28;20021;-69
2023/09/17 10:34:03;;;;;;;11.80;7.32;;;;;;;;;;5033158;28;20091;-69
2023/09/17 10:36:31;;;;;;;9.32;6.68;;;;;;;;;;5031700;28;20471;-69
2023/09/17 10:38:59;;;;;;;11.75;8.25;;;;;;;;;;5033334;28;20378;-69
2023/09/17 10:41:25;;;;;;;11.07;7.72;;;;;;;;;;5032823;28;20029;-69
2023/09/17 10:43:51;;;;;;;11.32;7.88;;;;;;;;;;5032583;28;20025;-69
2023/09/17 10:46:19;;;;;;;13.75;6.90;;;;;;;;;;5032858;28;20025;-69
2023/09/17 10:48:50;;;;;;;13.77;8.45;;;;;;;;;;5026989;28;20049;-69
2023/09/17 10:51:16;;;;;;;7.78;5.82;;;;;;;;;;5013314;28;20104;-69
2023/09/17 10:53:41;;;;;;;9.18;7.03;;;;;;;;;;5016117;28;20084;-69
2023/09/17 10:56:08;;;;;;;9.57;6.90;;;;;;;;;;5006922;28;20021;-69
2023/09/17 10:58:41;;;;;;;11.48;7.72;;;;;;;;;;5026032;28;20475;-69
2023/09/17 11:01:09;;;;;;;10.93;7.88;;;;;;;;;;5012113;28;20036;-69
2023/09/17 11:03:37;;;;;;;10.90;7.00;;;;;;;;;;5014249;28;20519;-69
2023/09/17 11:06:04;;;;;;;17.00;7.70;;;;;;;;;;5030382;28;20072;-69
2023/09/17 11:08:30;;;;;;;12.10;7.22;;;;;;;;;;5031527;28;20033;-69
2023/09/17 11:10:55;;;;;;;12.45;7.60;;;;;;;;;;5015852;28;20506;-69
2023/09/17 11:13:21;;;;;;;11.57;6.40;;;;;;;;;;5012762;28;20022;-69
2023/09/17 11:15:48;;;;;;;7.50;6.38;;;;;;;;;;5017364;28;20033;-69
2023/09/17 11:18:14;;;;;;;10.35;7.28;;;;;;;;;;5011900;28;20096;-69
2023/09/17 11:20:57;;;;;;;13.02;6.70;;;;;;;;;;5023502;28;20167;-69
2023/09/17 11:23:42;;;;;;;13.18;7.43;;;;;;;;;;5031486;28;20025;-69
2023/09/17 11:26:07;;;;;;;11.85;6.97;;;;;;;;;;5032267;28;20021;-69
2023/09/17 11:28:38;;;;;;;12.55;7.97;;;;;;;;;;5031668;28;20116;-69
2023/09/17 11:31:13;;;;;;;9.93;7.25;;;;;;;;;;5032184;28;20056;-69
2023/09/17 11:33:38;;;;;;;8.10;6.32;;;;;;;;;;5030345;28;20034;-69
2023/09/17 11:36:04;;;;;;;11.15;7.38;;;;;;;;;;5030972;28;20476;-69
2023/09/17 11:38:30;;;;;;;11.68;7.88;;;;;;;;;;5014752;28;20156;-69
2023/09/17 11:41:09;;;;;;;11.38;7.20;;;;;;;;;;5011309;28;20049;-69
2023/09/17 11:43:43;;;;;;;8.50;5.85;;;;;;;;;;5016518;28;20022;-69
2023/09/17 11:46:10;;;;;;;11.23;7.53;;;;;;;;;;5012057;28;20053;-69
2023/09/17 11:48:36;;;;;;;8.70;5.85;;;;;;;;;;5012235;28;20053;-69
2023/09/17 11:51:27;;;;;;;11.02;8.52;;;;;;;;;;5012636;28;20044;-69
2023/09/17 11:54:01;;;;;;;10.60;7.85;;;;;;;;;;5029715;28;20565;-69
2023/09/17 11:56:31;;;;;;;10.43;7.05;;;;;;;;;;5018549;28;20091;-69
2023/09/17 11:59:04;;;;;;;;;;;;;;;;;;5013334;28;20027;-69
2023/09/17 12:01:35;;;;;;;8.80;6.88;;;;;;;;;;5019028;28;20322;-69
2023/09/17 12:04:05;;;;;;;11.68;8.05;;;;;;;;;;5007071;28;20168;-69
2023/09/17 12:06:30;;;;;;;;;;;;;;;;;;5031381;28;20017;-69
2023/09/17 12:09:15;;;;;;;8.83;6.67;;;;;;;;;;5032193;28;19916;-69
2023/09/17 12:11:41;;;;;;;8.55;6.65;;;;;;;;;;5031969;28;20248;-69
2023/09/17 12:14:06;;;;;;;9.57;7.00;;;;;;;;;;5031604;28;20119;-69
2023/09/17 12:16:33;;;;;;;8.57;5.78;;;;;;;;;;5031945;28;20079;-69
2023/09/17 12:18:59;;;;;;;8.63;7.32;;;;;;;;;;5031142;28;20034;-69
2023/09/17 12:21:27;;;;;;;13.10;8.50;;;;;;;;;;5030710;28;20023;-69
2023/09/17 12:24:00;;;;;;;8.70;6.50;;;;;;;;;;5020774;28;20018;-69
2023/09/17 12:29:42;;;;;;;10.63;6.25;;;;;;;;;;5040396;28;20026;-69
2023/09/17 12:32:08;;;;;;;9.10;6.32;;;;;;;;;;5035237;28;20650;-69
2023/09/17 12:34:34;;;;;;;7.93;5.85;;;;;;;;;;5019780;28;20017;-69
2023/09/17 12:36:59;;;;;;;7.18;5.35;;;;;;;;;;5014522;28;20128;-69
2023/09/17 12:39:24;;;;;;;8.75;5.85;;;;;;;;;;5017985;28;20021;-69
2023/09/17 12:41:49;;;;;;;9.15;6.40;;;;;;;;;;5033257;28;20075;-69
2023/09/17 12:44:15;;;;;;;8.57;5.50;;;;;;;;;;5035250;28;20133;-69
2023/09/17 12:46:40;;;;;;;9.02;4.82;;;;;;;;;;5034936;28;20394;-69
2023/09/17 12:49:07;;;;;;;7.82;5.55;;;;;;;;;;5035399;28;20032;-69
2023/09/17 12:51:33;;;;;;;6.20;5.13;;;;;;;;;;5035148;28;20030;-69
2023/09/17 12:53:58;;;;;;;7.40;5.00;;;;;;;;;;5034083;28;20375;-69
2023/09/17 12:56:28;;;;;;;8.10;5.75;;;;;;;;;;5034435;28;20025;-69
2023/09/17 12:58:53;;;;;;;8.27;5.60;;;;;;;;;;5034948;28;20029;-69
2023/09/17 13:01:19;;;;;;;6.95;5.43;;;;;;;;;;5033702;28;20030;-69
2023/09/17 13:03:59;;;;;;;8.90;4.97;;;;;;;;;;5033730;28;20032;-69
2023/09/17 13:06:26;;;;;;;8.77;5.15;;;;;;;;;;5035057;28;20021;-69
2023/09/17 13:08:52;;;;;;;7.65;5.25;;;;;;;;;;5034349;28;20108;-69
2023/09/17 13:11:17;;;;;;;7.22;5.47;;;;;;;;;;5033965;28;20097;-69
2023/09/17 13:13:45;;;;;;;8.45;5.93;;;;;;;;;;5034858;28;20033;-69
2023/09/17 13:16:10;;;;;;;7.43;5.45;;;;;;;;;;5033564;28;20030;-69
2023/09/17 13:18:35;;;;;;;9.38;6.60;;;;;;;;;;5032848;28;20399;-69
2023/09/17 13:21:01;;;;;;;10.90;6.60;;;;;;;;;;5034531;28;20025;-69
2023/09/17 13:23:26;;;;;;;7.85;5.95;;;;;;;;;;5027520;28;20030;-69
2023/09/17 13:25:52;;;;;;;7.72;5.63;;;;;;;;;;5014429;28;20432;-69
2023/09/17 13:28:19;;;;;;;8.65;6.10;;;;;;;;;;5020379;28;20103;-69
2023/09/17 13:30:45;;;;;;;10.15;6.13;;;;;;;;;;5014284;28;20053;-69
2023/09/17 13:33:13;;;;;;;8.80;5.82;;;;;;;;;;5014471;28;20025;-69
2023/09/17 13:35:41;;;;;;;8.40;5.72;;;;;;;;;;5016220;28;20416;-69
2023/09/17 13:38:11;;;;;;;9.30;5.35;;;;;;;;;;5014435;28;20025;-69
2023/09/17 13:40:45;;;;;;;8.65;5.85;;;;;;;;;;5024519;28;20025;-69
2023/09/17 13:43:10;;;;;;;10.70;5.45;;;;;;;;;;5014579;28;20026;-69
2023/09/17 13:45:35;;;;;;;7.38;5.18;;;;;;;;;;5014233;28;20108;-69
2023/09/17 13:48:01;;;;;;;7.68;5.40;;;;;;;;;;5018039;28;20029;-69
2023/09/17 13:50:26;;;;;;;9.52;5.22;;;;;;;;;;5013520;28;20026;-69
2023/09/17 13:52:52;;;;;;;7.93;5.45;;;;;;;;;;5019678;28;20021;-69
2023/09/17 13:55:18;;;;;;;8.35;6.00;;;;;;;;;;5026741;28;20032;-69
2023/09/17 13:57:43;;;;;;;7.82;6.15;;;;;;;;;;5033745;28;20502;-69
2023/09/17 14:00:09;;;;;;;7.72;5.75;;;;;;;;;;5028504;28;20026;-69
2023/09/17 14:02:36;;;;;;;8.05;5.38;;;;;;;;;;5033249;28;20021;-70
2023/09/17 14:05:02;;;;;;;7.32;5.60;;;;;;;;;;5033788;28;20033;-70
2023/09/17 14:07:27;;;;;;;8.00;5.40;;;;;;;;;;5032516;28;20029;-70
2023/09/17 14:09:52;;;;;;;7.40;4.93;;;;;;;;;;5033686;28;20108;-70
2023/09/17 14:12:18;;;;;;;8.18;6.00;;;;;;;;;;5033935;28;20057;-72
2023/09/17 14:14:43;;;;;;;7.55;5.28;;;;;;;;;;5034000;28;20379;-71
2023/09/17 14:17:11;;;;;;;7.22;5.78;;;;;;;;;;5032831;28;20022;-71
2023/09/17 14:19:36;;;;;;;9.57;5.00;;;;;;;;;;5034035;28;20029;-71
2023/09/17 14:22:01;;;;;;;8.07;5.72;;;;;;;;;;5033787;28;20018;-72
2023/09/17 14:24:26;;;;;;;8.07;5.80;;;;;;;;;;5033323;28;20036;-72